Time;durP1;ratioP1;P1;durP2;ratioP2;P2;SDS_P1;SDS_P2;PMS_P1;PMS_P2;Temp;Humidity;BMP_temperature;BMP_pressure;BME280_temperature;BME280_humidity;BME280_pressure;Samples;Min_cycle;Max_cycle;Signal;HPM_P1;HPM_P2
2021/05/24 00:00:57;;;;;;;3.83;2.97;;;;;;;19.50;51.62;94976.13;2958611;40;20424;-81
2021/05/24 00:02:59;;;;;;;4.97;2.80;;;;;;;19.56;51.32;94964.66;2953589;40;20431;-81
2021/05/24 00:05:00;;;;;;;5.68;2.55;;;;;;;19.56;51.09;94969.97;2951173;40;20089;-81
2021/05/24 00:07:02;;;;;;;5.60;2.55;;;;;;;19.63;50.92;94975.28;2957764;40;20089;-82
2021/05/24 00:09:04;;;;;;;3.95;2.53;;;;;;;19.65;50.96;94974.03;2959822;40;20299;-82
2021/05/24 00:11:07;;;;;;;4.47;2.45;;;;;;;19.65;50.66;94968.72;2959777;40;20059;-81
2021/05/24 00:13:11;;;;;;;5.00;2.40;;;;;;;19.68;50.97;94967.50;2960460;40;20049;-81
2021/05/24 00:15:23;;;;;;;;;;;;;;;19.65;50.69;94966.06;2949324;40;20438;-81
2021/05/24 00:17:25;;;;;;;5.05;2.80;;;;;;;19.61;50.43;94967.50;2960230;40;19936;-82
2021/05/24 00:19:26;;;;;;;5.40;2.85;;;;;;;19.62;50.55;94974.47;2964009;40;20049;-81
2021/05/24 00:21:28;;;;;;;4.35;2.85;;;;;;;19.60;50.48;94984.47;2960825;40;20045;-81
2021/05/24 00:23:30;;;;;;;3.50;2.20;;;;;;;19.61;50.56;94969.34;2959805;40;20119;-80
2021/05/24 00:25:32;;;;;;;4.68;2.35;;;;;;;19.61;50.35;94964.03;2965973;40;20112;-80
2021/05/24 00:27:34;;;;;;;6.82;2.63;;;;;;;19.60;50.53;94979.16;2966856;40;20048;-81
2021/05/24 00:29:36;;;;;;;7.55;2.92;;;;;;;19.57;50.75;94986.72;2963196;40;20057;-79
2021/05/24 00:31:37;;;;;;;4.32;2.55;;;;;;;19.03;52.39;94993.94;2962275;40;20512;-79
2021/05/24 00:33:39;;;;;;;4.63;2.50;;;;;;;18.63;53.69;95001.84;2953331;40;20065;-82
2021/05/24 00:35:41;;;;;;;7.15;2.47;;;;;;;18.24;54.29;95013.16;2957717;40;20041;-80
2021/05/24 00:37:43;;;;;;;6.22;2.72;;;;;;;18.16;54.45;95014.16;2962178;40;20092;-81
2021/05/24 00:39:45;;;;;;;4.00;2.60;;;;;;;18.13;54.33;95017.19;2960886;40;20057;-82
2021/05/24 00:41:46;;;;;;;9.05;2.90;;;;;;;18.16;54.10;95014.97;2956366;40;20098;-83
2021/05/24 00:43:48;;;;;;;4.93;2.67;;;;;;;18.35;53.46;95026.66;2959175;40;20053;-82
2021/05/24 00:45:50;;;;;;;5.43;2.58;;;;;;;18.51;53.17;95025.47;2956696;40;20102;-83
2021/05/24 00:47:52;;;;;;;7.35;2.90;;;;;;;18.58;52.89;95028.97;2957318;40;20069;-80
2021/05/24 00:49:54;;;;;;;7.57;3.00;;;;;;;18.62;52.64;95032.84;2960394;40;20426;-81
2021/05/24 00:51:56;;;;;;;3.92;2.40;;;;;;;18.46;52.89;95038.53;2960148;40;20060;-81
2021/05/24 00:53:59;;;;;;;4.75;2.40;;;;;;;18.28;53.44;95033.75;2958359;40;20383;-81
2021/05/24 00:56:00;;;;;;;6.50;2.85;;;;;;;18.02;54.18;95031.81;2959670;40;20104;-82
2021/05/24 00:58:03;;;;;;;6.63;2.60;;;;;;;18.20;53.76;95036.63;2957976;40;20146;-81
2021/05/24 01:00:08;;;;;;;4.30;2.03;;;;;;;18.39;53.29;95043.81;2959075;40;20118;-82
2021/05/24 01:02:10;;;;;;;4.65;2.50;;;;;;;18.52;52.95;95039.56;2958309;40;20360;-84
2021/05/24 01:04:14;;;;;;;6.75;2.53;;;;;;;18.65;52.40;95042.25;2960274;40;20068;-82
2021/05/24 01:06:20;;;;;;;5.95;2.45;;;;;;;18.77;51.94;95050.44;2960456;40;20045;-83
2021/05/24 01:08:22;;;;;;;4.82;2.55;;;;;;;18.87;51.60;95048.25;2961358;40;20095;-81
2021/05/24 01:10:24;;;;;;;4.97;2.20;;;;;;;18.92;51.25;95055.59;2962307;40;20081;-81
2021/05/24 01:12:26;;;;;;;4.32;2.22;;;;;;;18.97;50.66;95047.84;2955866;40;20061;-82
2021/05/24 01:14:27;;;;;;;5.25;1.90;;;;;;;19.02;49.99;95045.41;2960484;40;20056;-69
2021/05/24 01:16:30;;;;;;;5.85;2.30;;;;;;;19.09;49.89;95046.22;2957013;40;20357;-70
2021/05/24 01:18:32;;;;;;;4.38;1.95;;;;;;;19.04;49.14;95046.03;2959365;40;20421;-69
2021/05/24 01:20:33;;;;;;;4.30;1.77;;;;;;;19.10;48.92;95050.53;2959970;40;20359;-81
2021/05/24 01:22:38;;;;;;;4.25;1.88;;;;;;;19.09;48.56;95050.72;2961585;40;20093;-80
2021/05/24 01:24:39;;;;;;;3.45;1.90;;;;;;;19.12;47.24;95053.81;2959914;40;20073;-81
2021/05/24 01:26:43;;;;;;;5.97;1.83;;;;;;;19.17;47.39;95056.66;2960406;40;20409;-82
2021/05/24 01:28:45;;;;;;;;;;;;;;;19.26;47.45;95064.44;2955892;40;20053;-83
2021/05/24 01:30:47;;;;;;;10.32;2.08;;;;;;;19.27;46.89;95064.19;2957245;40;19957;-81
2021/05/24 01:32:51;;;;;;;4.47;1.70;;;;;;;19.36;46.92;95065.66;2958163;40;20057;-81
2021/05/24 01:34:54;;;;;;;4.10;1.60;;;;;;;19.39;46.15;95062.56;2959374;40;20105;-81
2021/05/24 01:36:55;;;;;;;5.47;1.70;;;;;;;19.39;45.78;95069.75;2959340;40;20069;-83
2021/05/24 01:38:57;;;;;;;3.58;1.80;;;;;;;19.47;45.63;95068.69;2959661;40;20392;-82
2021/05/24 01:40:59;;;;;;;6.38;2.03;;;;;;;19.52;45.71;95071.56;2955846;40;20057;-82
2021/05/24 01:43:01;;;;;;;5.13;2.00;;;;;;;19.53;45.28;95068.72;2960491;40;20049;-82
2021/05/24 01:45:04;;;;;;;5.75;1.80;;;;;;;19.48;45.77;95068.50;2960203;40;20088;-79
2021/05/24 01:47:07;;;;;;;3.95;1.80;;;;;;;19.31;45.98;95072.59;2949915;40;20054;-81
2021/05/24 01:49:10;;;;;;;9.63;2.20;;;;;;;19.11;46.68;95078.72;2960031;40;20084;-79
2021/05/24 01:51:11;;;;;;;4.75;2.38;;;;;;;18.73;48.49;95083.69;2961372;40;20716;-81
2021/05/24 01:53:13;;;;;;;6.82;2.33;;;;;;;18.70;48.84;95089.44;2963049;40;20082;-83
2021/05/24 01:55:16;;;;;;;6.60;1.90;;;;;;;18.60;49.05;95087.13;2960763;40;20065;-80
2021/05/24 01:57:17;;;;;;;5.25;1.88;;;;;;;18.53;49.21;95094.25;2961638;40;20325;-81
2021/05/24 01:59:19;;;;;;;4.95;1.85;;;;;;;18.34;49.66;95099.28;2960297;40;20100;-81
2021/05/24 02:01:21;;;;;;;7.28;2.42;;;;;;;18.28;50.35;95101.91;2959917;40;20428;-83
2021/05/24 02:03:22;;;;;;;5.20;2.20;;;;;;;18.22;50.31;95103.53;2960401;40;20126;-81
2021/05/24 02:05:26;;;;;;;6.85;2.00;;;;;;;18.08;50.53;95110.56;2959640;40;20053;-80
2021/05/24 02:07:31;;;;;;;7.13;1.80;;;;;;;18.04;50.70;95114.63;2959593;40;20049;-83
2021/05/24 02:09:35;;;;;;;5.13;2.10;;;;;;;17.98;50.92;95108.28;2959818;40;20047;-82
2021/05/24 02:11:37;;;;;;;5.18;2.50;;;;;;;18.10;50.58;95108.53;2959942;40;20425;-83
2021/05/24 02:13:38;;;;;;;4.15;2.13;;;;;;;17.99;50.86;95115.22;2947323;40;20311;-82
2021/05/24 02:15:41;;;;;;;6.18;2.28;;;;;;;17.96;51.13;95112.97;2961275;40;20068;-82
2021/05/24 02:17:43;;;;;;;6.83;2.50;;;;;;;17.85;51.46;95112.66;2960608;40;20373;-79
2021/05/24 02:19:47;;;;;;;7.15;2.40;;;;;;;17.71;52.04;95114.38;2962126;40;20090;-80
2021/05/24 02:21:49;;;;;;;10.30;2.40;;;;;;;17.65;52.46;95107.22;2962021;40;20064;-81
2021/05/24 02:23:51;;;;;;;6.30;2.30;;;;;;;17.49;52.57;95121.56;2949347;40;20053;-82
2021/05/24 02:25:53;;;;;;;3.45;1.75;;;;;;;17.38;52.90;95125.56;2958057;40;20061;-70
2021/05/24 02:27:55;;;;;;;4.35;2.22;;;;;;;17.35;53.19;95134.66;2959113;40;20093;-69
2021/05/24 02:29:57;;;;;;;7.90;2.40;;;;;;;17.30;53.33;95123.84;2957728;40;20084;-81
2021/05/24 02:31:59;;;;;;;4.10;1.65;;;;;;;17.37;53.33;95131.84;2959430;40;20057;-81
2021/05/24 02:34:05;;;;;;;3.58;1.88;;;;;;;17.53;52.82;95139.53;2961368;40;20053;-83
2021/05/24 02:36:07;;;;;;;3.60;2.00;;;;;;;17.71;52.41;95138.25;2961121;40;20366;-81
2021/05/24 02:38:10;;;;;;;6.70;2.30;;;;;;;17.80;52.34;95142.38;2959625;40;20061;-82
2021/05/24 02:40:13;;;;;;;6.97;2.25;;;;;;;17.87;52.34;95140.59;2959117;40;20315;-82
2021/05/24 02:42:15;;;;;;;4.30;1.55;;;;;;;17.91;52.23;95141.06;2957610;40;20133;-85
2021/05/24 02:44:17;;;;;;;7.97;1.92;;;;;;;17.69;53.19;95145.56;2960667;40;20053;-83
2021/05/24 02:46:19;;;;;;;6.07;1.92;;;;;;;17.67;53.34;95155.53;2958494;40;20370;-84
2021/05/24 02:48:21;;;;;;;5.85;1.77;;;;;;;17.68;53.44;95163.28;2957789;40;20162;-82
2021/05/24 02:50:23;;;;;;;4.43;1.70;;;;;;;17.68;53.80;95151.84;2958531;40;20060;-82
2021/05/24 02:52:25;;;;;;;5.05;1.98;;;;;;;17.69;53.74;95162.28;2955662;40;20057;-81
2021/05/24 02:54:27;;;;;;;3.55;1.55;;;;;;;17.66;54.17;95167.13;2956838;40;20153;-81
2021/05/24 02:56:29;;;;;;;3.80;2.25;;;;;;;17.76;54.00;95170.28;2958444;40;20057;-81
2021/05/24 02:58:31;;;;;;;4.28;1.83;;;;;;;17.83;53.97;95171.16;2958622;40;20059;-81
2021/05/24 03:00:32;;;;;;;6.30;1.88;;;;;;;17.84;53.98;95174.66;2959741;40;20089;-82
2021/05/24 03:02:43;;;;;;;3.33;1.70;;;;;;;17.78;54.27;95173.53;2959167;40;20488;-82
2021/05/24 03:04:44;;;;;;;7.55;1.95;;;;;;;17.82;54.18;95177.47;2959575;40;20081;-81
2021/05/24 03:06:46;;;;;;;5.88;2.47;;;;;;;17.82;54.15;95180.13;2958540;40;20392;-81
2021/05/24 03:08:48;;;;;;;9.05;1.92;;;;;;;17.72;54.60;95177.78;2958493;40;20808;-81
2021/05/24 03:10:50;;;;;;;4.70;2.08;;;;;;;17.77;54.80;95185.16;2957961;40;20085;-69
2021/05/24 03:12:53;;;;;;;4.32;2.15;;;;;;;17.72;54.83;95180.41;2957916;40;20311;-70
2021/05/24 03:14:54;;;;;;;6.00;1.92;;;;;;;17.80;55.06;95184.78;2957557;40;20136;-69
2021/05/24 03:16:56;;;;;;;7.28;1.90;;;;;;;17.87;54.58;95176.91;2957738;40;20057;-69
2021/05/24 03:18:58;;;;;;;7.05;2.15;;;;;;;17.80;54.94;95184.78;2958583;40;20063;-70
2021/05/24 03:21:00;;;;;;;2.40;1.25;;;;;;;17.78;55.24;95184.16;2956431;40;20492;-69
2021/05/24 03:23:02;;;;;;;5.25;1.83;;;;;;;17.74;55.09;95189.00;2957744;40;20085;-69
2021/05/24 03:25:05;;;;;;;7.32;1.80;;;;;;;17.79;55.20;95199.06;2948988;40;20061;-69
2021/05/24 03:27:07;;;;;;;2.72;1.60;;;;;;;17.69;55.58;95191.41;2955010;40;20504;-69
2021/05/24 03:29:08;;;;;;;4.95;1.70;;;;;;;17.67;55.71;95203.22;2957250;40;20044;-70
2021/05/24 03:31:11;;;;;;;7.28;2.53;;;;;;;17.76;55.38;95207.38;2956243;40;20084;-70
2021/05/24 03:33:12;;;;;;;6.20;2.80;;;;;;;17.71;55.49;95207.13;2958329;40;20056;-69
2021/05/24 03:35:14;;;;;;;5.03;2.17;;;;;;;17.70;55.52;95216.06;2957631;40;20100;-69
2021/05/24 03:37:16;;;;;;;7.22;1.80;;;;;;;17.79;55.37;95214.94;2957544;40;20065;-68
2021/05/24 03:39:20;;;;;;;7.65;2.45;;;;;;;17.83;55.21;95212.75;2958694;40;20447;-69
2021/05/24 03:41:22;;;;;;;4.00;1.63;;;;;;;17.83;55.17;95218.88;2957800;40;20159;-70
2021/05/24 03:43:24;;;;;;;7.78;1.63;;;;;;;17.81;54.99;95221.69;2958968;40;20064;-82
2021/05/24 03:45:31;;;;;;;3.72;1.80;;;;;;;17.87;54.91;95228.06;2960865;40;20454;-82
2021/05/24 03:47:33;;;;;;;5.55;1.90;;;;;;;17.79;55.01;95226.38;2956739;40;20133;-69
2021/05/24 03:49:35;;;;;;;5.30;1.70;;;;;;;17.72;55.42;95227.31;2958511;40;20101;-69
2021/05/24 03:51:37;;;;;;;9.80;2.08;;;;;;;17.71;55.66;95223.84;2955166;40;20106;-68
2021/05/24 03:53:39;;;;;;;4.43;2.17;;;;;;;17.70;55.77;95234.63;2956840;40;20110;-70
2021/05/24 03:55:41;;;;;;;5.97;1.60;;;;;;;17.71;55.65;95230.97;2956619;40;20402;-68
2021/05/24 03:57:42;;;;;;;4.90;1.75;;;;;;;17.65;56.14;95231.72;2958548;40;20100;-69
2021/05/24 03:59:44;;;;;;;4.80;1.73;;;;;;;17.73;55.95;95234.25;2958466;40;20053;-70
2021/05/24 04:01:46;;;;;;;5.70;1.75;;;;;;;17.79;55.59;95229.00;2958017;40;20064;-71
2021/05/24 04:03:50;;;;;;;5.45;1.77;;;;;;;17.90;55.36;95233.00;2959180;40;20141;-70
2021/05/24 04:05:59;;;;;;;5.78;1.75;;;;;;;17.98;55.35;95240.84;2958226;40;20057;-71
2021/05/24 04:08:02;;;;;;;5.82;1.88;;;;;;;18.10;54.96;95249.06;2954569;40;20121;-70
2021/05/24 04:10:04;;;;;;;6.45;1.90;;;;;;;18.11;55.14;95248.06;2959662;40;20165;-70
2021/05/24 04:12:06;;;;;;;5.10;1.50;;;;;;;18.19;54.83;95253.22;2959623;40;20049;-70
2021/05/24 04:14:08;;;;;;;9.30;2.10;;;;;;;18.28;54.53;95266.31;2959117;40;20145;-70
2021/05/24 04:16:10;;;;;;;4.03;1.77;;;;;;;17.96;55.60;95272.00;2957761;40;20133;-70
2021/05/24 04:18:16;;;;;;;8.70;2.20;;;;;;;17.80;56.21;95272.22;2959860;40;20064;-69
2021/05/24 04:20:18;;;;;;;5.50;2.00;;;;;;;17.80;56.35;95280.19;2959347;40;20057;-69
2021/05/24 04:22:20;;;;;;;4.45;1.92;;;;;;;17.65;56.65;95282.06;2958647;40;20057;-69
2021/05/24 04:24:21;;;;;;;3.95;1.58;;;;;;;17.76;56.48;95284.22;2958464;40;20044;-70
2021/05/24 04:26:23;;;;;;;4.93;1.75;;;;;;;17.22;58.26;95289.94;2957438;40;20153;-70
2021/05/24 04:28:25;;;;;;;4.28;1.58;;;;;;;17.08;58.76;95286.31;2957974;40;20059;-70
2021/05/24 04:30:30;;;;;;;5.13;2.38;;;;;;;16.95;59.41;95289.59;2959704;40;20060;-70
2021/05/24 04:32:32;;;;;;;2.75;1.60;;;;;;;17.24;58.67;95295.88;2957583;40;20057;-69
2021/05/24 04:34:33;;;;;;;5.95;2.75;;;;;;;17.45;58.21;95295.13;2956955;40;20365;-70
2021/05/24 04:36:35;;;;;;;7.57;1.85;;;;;;;17.58;57.45;95296.06;2958481;40;20057;-69
2021/05/24 04:38:37;;;;;;;3.38;1.90;;;;;;;17.70;57.04;95301.72;2958290;40;20084;-69
2021/05/24 04:40:39;;;;;;;4.72;1.70;;;;;;;17.93;56.56;95300.72;2959065;40;20060;-70
2021/05/24 04:42:40;;;;;;;3.78;1.33;;;;;;;18.14;55.91;95308.66;2959438;40;20076;-70
2021/05/24 04:44:42;;;;;;;4.88;1.50;;;;;;;18.17;55.50;95312.75;2958480;40;20072;-70
2021/05/24 04:46:44;;;;;;;3.72;1.50;;;;;;;18.17;55.50;95326.00;2956741;40;20113;-69
2021/05/24 04:48:46;;;;;;;4.45;1.60;;;;;;;18.17;55.34;95310.09;2958737;40;20442;-69
2021/05/24 04:50:48;;;;;;;6.07;1.50;;;;;;;18.10;55.40;95319.84;2959271;40;20141;-68
2021/05/24 04:52:49;;;;;;;5.03;1.30;;;;;;;18.09;55.47;95318.19;2958341;40;20306;-70
2021/05/24 04:54:52;;;;;;;3.90;1.45;;;;;;;18.10;55.43;95320.66;2958575;40;20052;-70
2021/05/24 04:56:54;;;;;;;6.72;2.03;;;;;;;18.19;55.70;95326.63;2958828;40;20063;-69
2021/05/24 04:58:55;;;;;;;7.65;1.70;;;;;;;18.20;55.45;95317.69;2956958;40;20432;-70
2021/05/24 05:00:58;;;;;;;6.63;1.50;;;;;;;18.30;55.33;95322.66;2957055;40;20055;-70
2021/05/24 05:03:00;;;;;;;3.10;1.25;;;;;;;18.42;54.84;95326.44;2957029;40;20061;-69
2021/05/24 05:05:04;;;;;;;3.00;1.60;;;;;;;18.50;54.68;95325.44;2956972;40;20053;-70
2021/05/24 05:07:05;;;;;;;2.47;1.23;;;;;;;18.48;54.74;95330.97;2957535;40;20134;-69
2021/05/24 05:09:07;;;;;;;3.88;1.60;;;;;;;18.51;54.55;95338.53;2957830;40;20647;-70
2021/05/24 05:11:10;;;;;;;7.60;1.92;;;;;;;18.31;55.30;95343.69;2958968;40;20048;-70
2021/05/24 05:13:11;;;;;;;3.70;1.45;;;;;;;17.91;56.57;95345.97;2958295;40;20064;-70
2021/05/24 05:15:13;;;;;;;3.40;1.70;;;;;;;17.94;56.94;95342.09;2959154;40;20081;-70
2021/05/24 05:17:15;;;;;;;4.93;1.73;;;;;;;18.01;56.39;95357.06;2958139;40;20059;-70
2021/05/24 05:19:17;;;;;;;4.18;1.60;;;;;;;18.15;56.54;95360.66;2959136;40;20410;-70
2021/05/24 05:21:18;;;;;;;1.95;1.20;;;;;;;18.31;55.82;95364.09;2957868;40;20097;-71
2021/05/24 05:23:20;;;;;;;7.20;1.58;;;;;;;18.35;55.82;95370.66;2958279;40;20056;-68
2021/05/24 05:25:22;;;;;;;4.25;1.88;;;;;;;18.35;55.67;95374.13;2959204;40;20427;-71
2021/05/24 05:27:24;;;;;;;4.47;1.60;;;;;;;18.37;56.12;95366.81;2959139;40;20115;-70
2021/05/24 05:29:26;;;;;;;4.70;1.77;;;;;;;18.26;56.29;95366.47;2957787;40;20068;-69
2021/05/24 05:31:27;;;;;;;4.47;1.88;;;;;;;18.24;56.63;95365.84;2957736;40;20532;-70
2021/05/24 05:33:29;;;;;;;3.47;2.20;;;;;;;18.07;57.12;95366.13;2958083;40;20111;-71
2021/05/24 05:35:31;;;;;;;5.38;1.70;;;;;;;18.00;57.17;95366.06;2957034;40;20059;-69
2021/05/24 05:37:33;;;;;;;5.85;1.65;;;;;;;18.03;57.09;95369.34;2958129;40;20089;-70
2021/05/24 05:39:36;;;;;;;2.67;1.70;;;;;;;18.09;57.11;95376.50;2957828;40;20052;-69
2021/05/24 05:41:37;;;;;;;2.67;1.33;;;;;;;18.34;56.58;95375.13;2957357;40;20052;-70
2021/05/24 05:43:39;;;;;;;3.10;1.40;;;;;;;18.31;56.63;95386.13;2955592;40;20064;-69
2021/05/24 05:45:41;;;;;;;3.28;1.42;;;;;;;18.39;56.76;95386.00;2958836;40;20082;-70
2021/05/24 05:47:43;;;;;;;7.43;1.70;;;;;;;18.09;57.67;95387.97;2957987;40;20060;-70
2021/05/24 05:49:48;;;;;;;3.85;1.88;;;;;;;18.08;57.96;95385.50;2958943;40;20101;-70
2021/05/24 05:51:50;;;;;;;5.53;1.70;;;;;;;18.32;57.32;95381.63;2956897;40;20060;-69
2021/05/24 05:53:52;;;;;;;4.85;1.67;;;;;;;18.57;56.72;95382.88;2958100;40;20057;-71
2021/05/24 05:55:54;;;;;;;4.88;1.50;;;;;;;18.71;56.31;95386.44;2957640;40;20115;-69
2021/05/24 05:57:56;;;;;;;5.68;1.80;;;;;;;18.81;56.03;95402.06;2957529;40;20085;-71
2021/05/24 05:59:58;;;;;;;6.60;1.60;;;;;;;18.86;55.86;95396.19;2957776;40;20492;-70
2021/05/24 06:02:00;;;;;;;5.43;1.60;;;;;;;18.79;56.01;95401.44;2958177;40;20057;-69
2021/05/24 06:04:02;;;;;;;5.40;1.63;;;;;;;18.86;56.01;95396.19;2955886;40;20049;-70
2021/05/24 06:06:04;;;;;;;2.92;1.42;;;;;;;18.89;55.88;95401.94;2957484;40;20164;-70
2021/05/24 06:08:07;;;;;;;4.07;1.30;;;;;;;18.78;55.33;95399.81;2957302;40;20056;-69
2021/05/24 06:10:10;;;;;;;7.53;2.22;;;;;;;18.66;55.53;95388.88;2958016;40;20056;-70
2021/05/24 06:12:12;;;;;;;6.32;2.05;;;;;;;18.65;55.64;95389.03;2957646;40;20345;-69
2021/05/24 06:14:13;;;;;;;3.03;1.35;;;;;;;18.81;55.14;95384.31;2957733;40;20068;-70
2021/05/24 06:16:15;;;;;;;2.88;1.40;;;;;;;19.06;54.48;95383.03;2956943;40;20051;-71
2021/05/24 06:18:17;;;;;;;7.72;1.73;;;;;;;19.13;54.59;95381.25;2958113;40;20111;-69
2021/05/24 06:20:19;;;;;;;3.92;1.50;;;;;;;19.09;54.12;95388.78;2957918;40;20063;-70
2021/05/24 06:22:21;;;;;;;4.47;1.70;;;;;;;18.52;55.36;95403.03;2958729;40;20241;-70
2021/05/24 06:24:22;;;;;;;7.07;2.00;;;;;;;18.76;55.03;95394.66;2957724;40;20080;-70
2021/05/24 06:26:24;;;;;;;9.75;2.38;;;;;;;18.96;54.03;95399.31;2958541;40;20400;-71
2021/05/24 06:28:26;;;;;;;5.22;1.40;;;;;;;18.36;55.98;95389.00;2958890;40;20133;-71
2021/05/24 06:30:28;;;;;;;2.42;1.33;;;;;;;17.73;58.43;95385.28;2957608;40;20970;-69
2021/05/24 06:32:29;;;;;;;3.25;1.25;;;;;;;17.64;58.48;95384.59;2958155;40;20366;-70
2021/05/24 06:34:31;;;;;;;2.53;1.50;;;;;;;17.78;58.52;95388.19;2958367;40;20110;-71
2021/05/24 06:36:33;;;;;;;4.43;1.70;;;;;;;18.21;57.13;95386.44;2958888;40;20079;-69
2021/05/24 06:38:34;;;;;;;3.15;1.55;;;;;;;18.61;56.19;95375.34;2958925;40;20048;-70
2021/05/24 06:40:36;;;;;;;6.40;1.85;;;;;;;18.88;54.43;95389.66;2958280;40;20075;-71
2021/05/24 06:42:38;;;;;;;7.18;1.60;;;;;;;18.98;53.98;95389.34;2958693;40;20067;-70
2021/05/24 06:44:40;;;;;;;7.05;1.88;;;;;;;19.09;53.50;95380.81;2955291;40;20093;-82
2021/05/24 06:46:41;;;;;;;3.97;2.22;;;;;;;19.15;53.50;95382.69;2955985;40;20057;-82
2021/05/24 06:48:43;;;;;;;5.75;1.80;;;;;;;19.39;53.03;95385.88;2959923;40;20077;-81
2021/05/24 06:50:45;;;;;;;5.55;2.05;;;;;;;19.65;52.52;95391.31;2957237;40;20358;-82
2021/05/24 06:52:47;;;;;;;3.88;1.65;;;;;;;19.27;53.18;95382.94;2961915;40;20134;-83
2021/05/24 06:54:48;;;;;;;4.68;1.58;;;;;;;18.81;54.55;95380.84;2958375;40;20056;-83
2021/05/24 06:56:50;;;;;;;2.78;1.08;;;;;;;18.15;55.89;95384.53;2966869;40;20083;-83
2021/05/24 06:58:52;;;;;;;6.07;1.80;;;;;;;18.16;56.46;95372.94;2967481;40;20052;-80
2021/05/24 07:00:53;;;;;;;4.43;1.20;;;;;;;17.85;57.15;95380.34;2960522;40;21529;-82
2021/05/24 07:02:55;;;;;;;6.35;1.83;;;;;;;18.31;56.18;95375.50;2959889;40;20105;-83
2021/05/24 07:04:57;;;;;;;2.13;1.30;;;;;;;18.47;55.91;95368.28;2959216;40;20334;-83
2021/05/24 07:06:59;;;;;;;3.30;1.13;;;;;;;18.68;54.65;95367.44;2959547;40;20073;-82
2021/05/24 07:09:00;;;;;;;3.22;1.38;;;;;;;18.39;55.06;95367.44;2958529;40;20060;-81
2021/05/24 07:11:02;;;;;;;5.93;1.70;;;;;;;18.36;55.30;95364.31;2957513;40;20076;-81
2021/05/24 07:13:04;;;;;;;3.03;1.70;;;;;;;18.47;55.17;95363.00;2960130;40;20052;-84
2021/05/24 07:15:07;;;;;;;3.78;2.10;;;;;;;18.80;54.87;95366.75;2959611;40;20271;-83
2021/05/24 07:17:08;;;;;;;5.47;2.78;;;;;;;19.08;54.57;95371.22;2957201;40;20061;-83
2021/05/24 07:19:10;;;;;;;5.93;2.60;;;;;;;18.80;54.06;95366.75;2959203;40;20085;-83
2021/05/24 07:21:12;;;;;;;6.15;2.28;;;;;;;18.89;53.97;95366.63;2959614;40;20145;-82
2021/05/24 07:23:14;;;;;;;7.53;1.70;;;;;;;19.32;52.81;95369.09;2958561;40;20482;-83
2021/05/24 07:25:16;;;;;;;6.53;3.15;;;;;;;19.43;52.16;95374.66;2959499;40;20060;-81
2021/05/24 07:27:19;;;;;;;6.97;2.40;;;;;;;19.24;52.65;95360.25;2958705;40;20111;-83
2021/05/24 07:29:20;;;;;;;10.10;4.20;;;;;;;19.46;52.50;95375.28;2957787;40;20056;-81
2021/05/24 07:31:22;;;;;;;5.82;1.83;;;;;;;19.79;51.72;95372.81;2958220;40;20368;-84
2021/05/24 07:33:24;;;;;;;4.80;1.60;;;;;;;19.99;51.11;95372.84;2954780;40;20063;-83
2021/05/24 07:35:27;;;;;;;5.25;2.63;;;;;;;19.79;51.82;95383.44;2958703;40;20078;-83
2021/05/24 07:37:30;;;;;;;6.57;2.75;;;;;;;19.77;51.48;95369.53;2958410;40;20053;-82
2021/05/24 07:39:33;;;;;;;3.72;1.65;;;;;;;19.95;50.36;95379.59;2960037;40;20503;-84
2021/05/24 07:41:36;;;;;;;3.47;2.03;;;;;;;19.95;50.68;95372.41;2957627;40;20077;-83
2021/05/24 07:43:38;;;;;;;5.85;1.70;;;;;;;20.29;49.84;95372.50;2959490;40;20060;-85
2021/05/24 07:45:40;;;;;;;7.15;2.25;;;;;;;20.50;49.93;95376.78;2959778;40;20173;-82
2021/05/24 07:47:42;;;;;;;8.80;1.60;;;;;;;20.52;49.66;95378.25;2952032;40;20407;-71
2021/05/24 07:49:45;;;;;;;6.88;1.80;;;;;;;20.79;49.18;95372.94;2955049;40;20779;-70
2021/05/24 07:51:47;;;;;;;;;;;;;;;20.84;49.08;95376.63;2958982;40;20052;-70
2021/05/24 07:53:49;;;;;;;4.88;1.83;;;;;;;21.10;48.44;95374.97;2954867;40;20014;-70
2021/05/24 07:55:51;;;;;;;5.70;1.70;;;;;;;21.13;48.01;95377.19;2955412;40;20542;-70
2021/05/24 07:57:52;;;;;;;3.17;1.50;;;;;;;21.41;47.35;95368.09;2956978;40;20064;-70
2021/05/24 07:59:54;;;;;;;4.40;1.60;;;;;;;21.26;47.01;95363.03;2958454;40;20053;-71
2021/05/24 08:01:57;;;;;;;4.75;2.20;;;;;;;21.28;46.76;95360.97;2957315;40;20057;-70
2021/05/24 08:03:59;;;;;;;10.60;2.17;;;;;;;21.46;46.11;95368.31;2955868;40;20064;-70
2021/05/24 08:06:00;;;;;;;2.60;1.40;;;;;;;21.52;46.37;95362.16;2954744;40;20554;-72
2021/05/24 08:08:02;;;;;;;3.53;1.50;;;;;;;21.52;46.11;95367.47;2953764;40;20143;-71
2021/05/24 08:10:06;;;;;;;3.53;1.42;;;;;;;21.50;46.21;95368.72;2958341;40;20053;-71
2021/05/24 08:12:08;;;;;;;1.65;1.25;;;;;;;21.02;46.54;95375.97;2957029;40;20412;-71
2021/05/24 08:14:14;;;;;;;3.35;1.63;;;;;;;21.14;46.04;95378.00;2957891;40;20053;-71
2021/05/24 08:16:17;;;;;;;3.50;1.33;;;;;;;21.11;46.15;95379.25;2954329;40;20309;-72
2021/05/24 08:18:19;;;;;;;5.35;1.75;;;;;;;21.37;45.85;95370.38;2957732;40;20325;-71
2021/05/24 08:20:21;;;;;;;4.80;2.17;;;;;;;21.62;45.24;95372.38;2947998;40;20072;-72
2021/05/24 08:22:22;;;;;;;7.30;3.55;;;;;;;21.78;44.20;95379.88;2947731;40;20081;-71
2021/05/24 08:24:24;;;;;;;16.77;6.05;;;;;;;21.83;44.29;95373.91;2956907;40;20061;-71
2021/05/24 08:26:26;;;;;;;29.70;11.23;;;;;;;22.07;44.07;95367.84;2957820;40;20053;-70
2021/05/24 08:28:28;;;;;;;5.22;2.85;;;;;;;22.38;43.48;95370.75;2955105;40;20080;-68
2021/05/24 08:30:31;;;;;;;6.75;1.80;;;;;;;22.51;42.76;95375.97;2956034;40;20144;-71
2021/05/24 08:32:33;;;;;;;7.45;2.17;;;;;;;22.55;42.27;95371.84;2958837;40;20141;-70
2021/05/24 08:34:35;;;;;;;4.20;1.83;;;;;;;22.76;42.44;95362.66;2958432;40;20065;-69
2021/05/24 08:36:37;;;;;;;3.97;1.45;;;;;;;22.88;42.63;95358.19;2959267;40;20057;-69
2021/05/24 08:38:39;;;;;;;3.83;1.65;;;;;;;23.08;41.39;95357.22;2959565;40;20048;-71
2021/05/24 08:40:42;;;;;;;3.67;1.58;;;;;;;23.23;41.33;95352.34;2958001;40;20454;-71
2021/05/24 08:42:44;;;;;;;7.18;2.58;;;;;;;23.31;42.04;95345.88;2958569;40;20096;-70
2021/05/24 08:44:48;;;;;;;38.40;9.90;;;;;;;23.40;41.07;95341.88;2958380;40;20413;-71
2021/05/24 08:46:49;;;;;;;;;;;;;;;23.57;40.54;95338.59;2957853;40;20096;-74
2021/05/24 08:49:11;;;;;;;7.13;1.80;;;;;;;23.70;40.07;95336.59;2952483;40;19995;-71
2021/05/24 08:51:13;;;;;;;9.60;1.92;;;;;;;23.81;39.74;95334.19;2958537;40;20067;-74
2021/05/24 08:53:15;;;;;;;3.30;1.40;;;;;;;23.92;39.80;95326.22;2959053;40;20086;-71
2021/05/24 08:55:17;;;;;;;3.95;2.05;;;;;;;24.04;40.15;95328.13;2957941;40;20142;-71
2021/05/24 08:57:19;;;;;;;3.78;1.70;;;;;;;24.06;39.90;95329.53;2958136;40;20068;-70
2021/05/24 08:59:21;;;;;;;4.15;1.73;;;;;;;24.03;39.36;95332.66;2958201;40;20100;-71
2021/05/24 09:01:23;;;;;;;4.07;2.00;;;;;;;24.04;39.39;95331.63;2957349;40;20072;-69
2021/05/24 09:03:27;;;;;;;10.25;3.40;;;;;;;23.86;39.32;95320.97;2956841;40;20059;-71
2021/05/24 09:05:31;;;;;;;9.32;3.45;;;;;;;23.60;39.76;95325.59;2957430;40;20379;-70
2021/05/24 09:07:49;;;;;;;8.73;4.22;;;;;;;23.74;39.81;95320.06;2956270;40;20401;-70
2021/05/24 09:10:03;;;;;;;8.30;3.47;;;;;;;23.82;40.13;95307.22;2952379;40;20065;-71
2021/05/24 09:12:18;;;;;;;;;;;;;;;23.89;39.79;95294.56;2959322;40;20045;-71
2021/05/24 09:14:24;;;;;;;5.35;2.03;;;;;;;24.02;40.11;95296.22;2959492;40;19941;-83
2021/05/24 09:16:34;;;;;;;4.90;1.65;;;;;;;24.15;39.54;95295.22;2955355;40;20053;-83
2021/05/24 09:18:36;;;;;;;4.80;1.80;;;;;;;24.27;39.15;95292.59;2951285;40;20190;-82
2021/05/24 09:20:42;;;;;;;4.38;1.55;;;;;;;24.28;38.78;95294.19;2959448;40;20342;-86
2021/05/24 09:22:45;;;;;;;7.18;2.60;;;;;;;24.27;38.73;95297.94;2958981;40;20339;-84
2021/05/24 09:24:48;;;;;;;17.35;5.47;;;;;;;24.32;39.11;95295.38;2958959;40;20052;-81
2021/05/24 09:26:50;;;;;;;6.72;1.90;;;;;;;23.91;38.64;95305.84;2961122;40;20166;-82
2021/05/24 09:28:52;;;;;;;5.70;1.90;;;;;;;23.80;38.10;95308.50;2960299;40;20052;-80
2021/05/24 09:31:01;;;;;;;3.80;1.73;;;;;;;23.28;38.92;95309.72;2956936;40;20075;-81
2021/05/24 09:33:13;;;;;;;12.68;4.85;;;;;;;23.48;38.99;95306.00;2959379;40;20045;-84
2021/05/24 09:35:14;;;;;;;7.22;3.00;;;;;;;23.58;39.66;95302.81;2959329;40;20052;-82
2021/05/24 09:37:20;;;;;;;17.08;6.97;;;;;;;23.84;40.02;95294.44;2957194;40;20091;-82